sensor_id;sensor_type;location;lat;lon;timestamp;P1;durP1;ratioP1;P2;durP2;ratioP2
1404;SDS011;697;51.114;6.542;2023-03-01T00:02:18;9.67;;;8.40;;
1404;SDS011;697;51.114;6.542;2023-03-01T00:04:45;8.90;;;7.43;;
1404;SDS011;697;51.114;6.542;2023-03-01T00:07:12;14.00;;;8.33;;
1404;SDS011;697;51.114;6.542;2023-03-01T00:09:39;9.20;;;8.40;;
1404;SDS011;697;51.114;6.542;2023-03-01T00:12:07;9.17;;;8.07;;
1404;SDS011;697;51.114;6.542;2023-03-01T00:14:34;10.30;;;7.63;;
1404;SDS011;697;51.114;6.542;2023-03-01T00:17:01;10.20;;;8.37;;
1404;SDS011;697;51.114;6.542;2023-03-01T00:19:28;9.60;;;7.90;;
1404;SDS011;697;51.114;6.542;2023-03-01T00:21:57;10.10;;;8.00;;
1404;SDS011;697;51.114;6.542;2023-03-01T00:24:24;8.83;;;7.73;;
1404;SDS011;697;51.114;6.542;2023-03-01T00:26:52;8.20;;;7.40;;
1404;SDS011;697;51.114;6.542;2023-03-01T00:29:21;10.40;;;8.40;;
1404;SDS011;697;51.114;6.542;2023-03-01T00:31:48;10.40;;;8.40;;
1404;SDS011;697;51.114;6.542;2023-03-01T00:34:15;10.03;;;8.03;;
1404;SDS011;697;51.114;6.542;2023-03-01T00:36:41;9.20;;;7.83;;
1404;SDS011;697;51.114;6.542;2023-03-01T00:39:09;8.90;;;7.77;;
1404;SDS011;697;51.114;6.542;2023-03-01T00:41:37;10.30;;;8.70;;
1404;SDS011;697;51.114;6.542;2023-03-01T00:44:05;8.53;;;7.40;;
1404;SDS011;697;51.114;6.542;2023-03-01T00:46:33;10.07;;;8.50;;
1404;SDS011;697;51.114;6.542;2023-03-01T00:48:59;9.67;;;8.40;;
1404;SDS011;697;51.114;6.542;2023-03-01T00:51:27;8.27;;;6.70;;
1404;SDS011;697;51.114;6.542;2023-03-01T00:53:55;12.27;;;7.80;;
1404;SDS011;697;51.114;6.542;2023-03-01T00:56:23;14.50;;;8.37;;
1404;SDS011;697;51.114;6.542;2023-03-01T00:58:50;10.13;;;7.33;;
1404;SDS011;697;51.114;6.542;2023-03-01T01:01:18;9.33;;;7.60;;
1404;SDS011;697;51.114;6.542;2023-03-01T01:03:47;8.63;;;7.77;;
1404;SDS011;697;51.114;6.542;2023-03-01T01:06:16;9.40;;;7.60;;
1404;SDS011;697;51.114;6.542;2023-03-01T01:08:44;8.33;;;7.43;;
1404;SDS011;697;51.114;6.542;2023-03-01T01:11:11;9.07;;;7.80;;
1404;SDS011;697;51.114;6.542;2023-03-01T01:13:39;9.90;;;8.30;;
1404;SDS011;697;51.114;6.542;2023-03-01T01:16:06;9.13;;;7.53;;
1404;SDS011;697;51.114;6.542;2023-03-01T01:18:33;9.13;;;7.57;;
1404;SDS011;697;51.114;6.542;2023-03-01T01:21:04;10.87;;;8.37;;
1404;SDS011;697;51.114;6.542;2023-03-01T01:23:32;8.57;;;7.67;;
1404;SDS011;697;51.114;6.542;2023-03-01T01:26:02;10.53;;;8.77;;
1404;SDS011;697;51.114;6.542;2023-03-01T01:28:30;11.97;;;8.20;;
1404;SDS011;697;51.114;6.542;2023-03-01T01:30:57;11.50;;;7.77;;
1404;SDS011;697;51.114;6.542;2023-03-01T01:33:24;10.53;;;9.20;;
1404;SDS011;697;51.114;6.542;2023-03-01T01:35:51;18.63;;;12.13;;
1404;SDS011;697;51.114;6.542;2023-03-01T01:38:19;12.80;;;10.57;;
1404;SDS011;697;51.114;6.542;2023-03-01T01:40:48;11.43;;;10.20;;
1404;SDS011;697;51.114;6.542;2023-03-01T01:43:17;9.47;;;8.47;;
1404;SDS011;697;51.114;6.542;2023-03-01T01:45:46;10.27;;;7.90;;
1404;SDS011;697;51.114;6.542;2023-03-01T01:48:14;10.90;;;8.43;;
1404;SDS011;697;51.114;6.542;2023-03-01T01:50:45;11.30;;;8.80;;
1404;SDS011;697;51.114;6.542;2023-03-01T01:53:20;9.27;;;8.37;;
1404;SDS011;697;51.114;6.542;2023-03-01T01:55:49;11.63;;;8.40;;
1404;SDS011;697;51.114;6.542;2023-03-01T01:58:19;9.90;;;8.43;;
1404;SDS011;697;51.114;6.542;2023-03-01T02:00:47;10.17;;;7.83;;
1404;SDS011;697;51.114;6.542;2023-03-01T02:03:16;8.23;;;7.43;;
1404;SDS011;697;51.114;6.542;2023-03-01T02:05:47;10.37;;;8.27;;
1404;SDS011;697;51.114;6.542;2023-03-01T02:08:18;8.67;;;7.80;;
1404;SDS011;697;51.114;6.542;2023-03-01T02:10:47;9.87;;;8.43;;
1404;SDS011;697;51.114;6.542;2023-03-01T02:13:16;9.40;;;8.40;;
1404;SDS011;697;51.114;6.542;2023-03-01T02:15:43;11.63;;;9.37;;
1404;SDS011;697;51.114;6.542;2023-03-01T02:18:11;12.20;;;8.67;;
1404;SDS011;697;51.114;6.542;2023-03-01T02:20:42;8.77;;;7.87;;
1404;SDS011;697;51.114;6.542;2023-03-01T02:23:15;9.63;;;8.23;;
1404;SDS011;697;51.114;6.542;2023-03-01T02:25:44;9.23;;;8.23;;
1404;SDS011;697;51.114;6.542;2023-03-01T02:28:27;11.30;;;8.43;;
1404;SDS011;697;51.114;6.542;2023-03-01T02:30:56;10.73;;;8.67;;
1404;SDS011;697;51.114;6.542;2023-03-01T02:33:42;10.13;;;8.23;;
1404;SDS011;697;51.114;6.542;2023-03-01T02:36:10;11.73;;;7.43;;
1404;SDS011;697;51.114;6.542;2023-03-01T02:38:41;10.57;;;8.30;;
1404;SDS011;697;51.114;6.542;2023-03-01T02:41:08;9.97;;;8.80;;
1404;SDS011;697;51.114;6.542;2023-03-01T02:43:40;13.87;;;9.00;;
1404;SDS011;697;51.114;6.542;2023-03-01T02:46:08;10.83;;;8.80;;
1404;SDS011;697;51.114;6.542;2023-03-01T02:48:42;11.13;;;8.77;;
1404;SDS011;697;51.114;6.542;2023-03-01T02:51:13;9.70;;;8.70;;
1404;SDS011;697;51.114;6.542;2023-03-01T02:54:06;9.77;;;8.77;;
1404;SDS011;697;51.114;6.542;2023-03-01T02:56:36;9.73;;;8.40;;
1404;SDS011;697;51.114;6.542;2023-03-01T02:59:04;9.70;;;8.20;;
1404;SDS011;697;51.114;6.542;2023-03-01T03:01:32;10.70;;;8.70;;
1404;SDS011;697;51.114;6.542;2023-03-01T03:04:03;10.57;;;9.50;;
1404;SDS011;697;51.114;6.542;2023-03-01T03:06:30;9.63;;;8.33;;
1404;SDS011;697;51.114;6.542;2023-03-01T03:08:58;11.33;;;8.80;;
1404;SDS011;697;51.114;6.542;2023-03-01T03:11:24;10.40;;;8.40;;
1404;SDS011;697;51.114;6.542;2023-03-01T03:13:51;9.77;;;8.77;;
1404;SDS011;697;51.114;6.542;2023-03-01T03:16:20;10.47;;;8.90;;
1404;SDS011;697;51.114;6.542;2023-03-01T03:18:47;10.63;;;8.80;;
1404;SDS011;697;51.114;6.542;2023-03-01T03:21:14;9.53;;;8.50;;
1404;SDS011;697;51.114;6.542;2023-03-01T03:23:41;10.27;;;9.13;;
1404;SDS011;697;51.114;6.542;2023-03-01T03:26:08;11.33;;;7.90;;
1404;SDS011;697;51.114;6.542;2023-03-01T03:28:40;14.37;;;9.20;;
1404;SDS011;697;51.114;6.542;2023-03-01T03:31:07;10.00;;;8.50;;
1404;SDS011;697;51.114;6.542;2023-03-01T03:33:35;11.37;;;9.10;;
1404;SDS011;697;51.114;6.542;2023-03-01T03:36:02;11.00;;;9.10;;
1404;SDS011;697;51.114;6.542;2023-03-01T03:38:29;14.70;;;10.27;;
1404;SDS011;697;51.114;6.542;2023-03-01T03:41:00;13.33;;;9.60;;
1404;SDS011;697;51.114;6.542;2023-03-01T03:43:29;12.07;;;9.30;;
1404;SDS011;697;51.114;6.542;2023-03-01T03:45:56;10.87;;;9.40;;
1404;SDS011;697;51.114;6.542;2023-03-01T03:48:23;17.93;;;10.00;;
1404;SDS011;697;51.114;6.542;2023-03-01T03:50:52;14.00;;;9.23;;
1404;SDS011;697;51.114;6.542;2023-03-01T03:53:20;12.90;;;9.30;;
1404;SDS011;697;51.114;6.542;2023-03-01T03:55:48;11.20;;;9.93;;
1404;SDS011;697;51.114;6.542;2023-03-01T03:58:16;9.40;;;8.53;;
1404;SDS011;697;51.114;6.542;2023-03-01T04:00:44;10.73;;;9.37;;
1404;SDS011;697;51.114;6.542;2023-03-01T04:03:13;12.17;;;10.10;;
1404;SDS011;697;51.114;6.542;2023-03-01T04:05:40;11.77;;;9.93;;
1404;SDS011;697;51.114;6.542;2023-03-01T04:08:09;10.27;;;9.17;;
1404;SDS011;697;51.114;6.542;2023-03-01T04:10:37;10.30;;;9.30;;
1404;SDS011;697;51.114;6.542;2023-03-01T04:13:06;11.20;;;9.20;;
1404;SDS011;697;51.114;6.542;2023-03-01T04:15:36;12.33;;;10.00;;
1404;SDS011;697;51.114;6.542;2023-03-01T04:18:04;10.43;;;9.33;;
1404;SDS011;697;51.114;6.542;2023-03-01T04:20:32;13.90;;;9.60;;
1404;SDS011;697;51.114;6.542;2023-03-01T04:23:01;13.93;;;9.53;;
1404;SDS011;697;51.114;6.542;2023-03-01T04:25:36;10.50;;;9.37;;
1404;SDS011;697;51.114;6.542;2023-03-01T04:28:04;10.73;;;9.50;;
1404;SDS011;697;51.114;6.542;2023-03-01T04:30:30;15.30;;;9.60;;
1404;SDS011;697;51.114;6.542;2023-03-01T04:33:00;11.00;;;9.70;;
1404;SDS011;697;51.114;6.542;2023-03-01T04:35:27;10.87;;;9.00;;
1404;SDS011;697;51.114;6.542;2023-03-01T04:37:54;15.40;;;10.27;;
1404;SDS011;697;51.114;6.542;2023-03-01T04:40:21;13.40;;;10.00;;
1404;SDS011;697;51.114;6.542;2023-03-01T04:42:49;12.87;;;10.20;;
1404;SDS011;697;51.114;6.542;2023-03-01T04:45:16;10.53;;;9.43;;
1404;SDS011;697;51.114;6.542;2023-03-01T04:47:43;13.23;;;10.70;;
1404;SDS011;697;51.114;6.542;2023-03-01T04:50:11;10.80;;;9.43;;
1404;SDS011;697;51.114;6.542;2023-03-01T04:52:40;11.47;;;9.50;;
1404;SDS011;697;51.114;6.542;2023-03-01T04:55:07;10.90;;;9.20;;
1404;SDS011;697;51.114;6.542;2023-03-01T04:57:34;11.40;;;10.20;;
1404;SDS011;697;51.114;6.542;2023-03-01T05:00:03;12.00;;;9.50;;
1404;SDS011;697;51.114;6.542;2023-03-01T05:02:45;11.90;;;9.23;;
1404;SDS011;697;51.114;6.542;2023-03-01T05:05:13;9.73;;;8.63;;
1404;SDS011;697;51.114;6.542;2023-03-01T05:07:40;11.57;;;9.20;;
1404;SDS011;697;51.114;6.542;2023-03-01T05:10:07;11.83;;;9.40;;
1404;SDS011;697;51.114;6.542;2023-03-01T05:12:34;14.37;;;10.50;;
1404;SDS011;697;51.114;6.542;2023-03-01T05:15:04;14.20;;;9.83;;
1404;SDS011;697;51.114;6.542;2023-03-01T05:17:32;11.43;;;10.23;;
1404;SDS011;697;51.114;6.542;2023-03-01T05:19:58;11.20;;;9.47;;
1404;SDS011;697;51.114;6.542;2023-03-01T05:22:26;15.63;;;9.63;;
1404;SDS011;697;51.114;6.542;2023-03-01T05:24:52;11.57;;;10.07;;
1404;SDS011;697;51.114;6.542;2023-03-01T05:27:20;10.90;;;9.57;;
1404;SDS011;697;51.114;6.542;2023-03-01T05:29:47;12.80;;;10.00;;
1404;SDS011;697;51.114;6.542;2023-03-01T05:32:15;11.00;;;8.83;;
1404;SDS011;697;51.114;6.542;2023-03-01T05:34:42;14.87;;;9.77;;
1404;SDS011;697;51.114;6.542;2023-03-01T05:37:11;12.20;;;9.93;;
1404;SDS011;697;51.114;6.542;2023-03-01T05:39:38;14.03;;;10.70;;
1404;SDS011;697;51.114;6.542;2023-03-01T05:42:09;10.87;;;9.00;;
1404;SDS011;697;51.114;6.542;2023-03-01T05:44:37;12.40;;;9.93;;
1404;SDS011;697;51.114;6.542;2023-03-01T05:47:04;13.43;;;10.03;;
1404;SDS011;697;51.114;6.542;2023-03-01T05:49:32;11.43;;;10.23;;
1404;SDS011;697;51.114;6.542;2023-03-01T05:51:59;12.50;;;10.50;;
1404;SDS011;697;51.114;6.542;2023-03-01T05:54:26;12.30;;;9.30;;
1404;SDS011;697;51.114;6.542;2023-03-01T05:56:53;10.83;;;9.73;;
1404;SDS011;697;51.114;6.542;2023-03-01T05:59:19;12.73;;;9.97;;
1404;SDS011;697;51.114;6.542;2023-03-01T06:01:46;13.10;;;10.50;;
1404;SDS011;697;51.114;6.542;2023-03-01T06:04:13;13.03;;;10.27;;
1404;SDS011;697;51.114;6.542;2023-03-01T06:06:41;10.70;;;9.60;;
1404;SDS011;697;51.114;6.542;2023-03-01T06:09:07;11.33;;;9.83;;
1404;SDS011;697;51.114;6.542;2023-03-01T06:11:35;10.73;;;9.63;;
1404;SDS011;697;51.114;6.542;2023-03-01T06:14:02;12.40;;;9.83;;
1404;SDS011;697;51.114;6.542;2023-03-01T06:16:31;11.57;;;10.37;;
1404;SDS011;697;51.114;6.542;2023-03-01T06:18:58;11.30;;;10.10;;
1404;SDS011;697;51.114;6.542;2023-03-01T06:21:24;13.17;;;10.23;;
1404;SDS011;697;51.114;6.542;2023-03-01T06:23:52;13.93;;;11.13;;
1404;SDS011;697;51.114;6.542;2023-03-01T06:26:19;12.23;;;10.23;;
1404;SDS011;697;51.114;6.542;2023-03-01T06:28:46;12.13;;;9.70;;
1404;SDS011;697;51.114;6.542;2023-03-01T06:31:12;12.60;;;9.70;;
1404;SDS011;697;51.114;6.542;2023-03-01T06:33:39;13.67;;;10.83;;
1404;SDS011;697;51.114;6.542;2023-03-01T06:36:06;10.70;;;9.50;;
1404;SDS011;697;51.114;6.542;2023-03-01T06:38:34;11.13;;;9.63;;
1404;SDS011;697;51.114;6.542;2023-03-01T06:41:03;12.90;;;10.23;;
1404;SDS011;697;51.114;6.542;2023-03-01T06:43:30;13.97;;;10.43;;
1404;SDS011;697;51.114;6.542;2023-03-01T06:45:56;10.93;;;8.93;;
1404;SDS011;697;51.114;6.542;2023-03-01T06:48:23;14.67;;;12.33;;
1404;SDS011;697;51.114;6.542;2023-03-01T06:50:50;14.93;;;10.07;;
1404;SDS011;697;51.114;6.542;2023-03-01T06:53:17;10.93;;;9.63;;
1404;SDS011;697;51.114;6.542;2023-03-01T06:55:43;13.70;;;9.93;;
1404;SDS011;697;51.114;6.542;2023-03-01T06:58:11;16.63;;;10.60;;
1404;SDS011;697;51.114;6.542;2023-03-01T07:00:38;12.90;;;9.90;;
1404;SDS011;697;51.114;6.542;2023-03-01T07:03:05;12.80;;;10.73;;
1404;SDS011;697;51.114;6.542;2023-03-01T07:05:33;14.23;;;11.63;;
1404;SDS011;697;51.114;6.542;2023-03-01T07:08:00;12.27;;;10.97;;
1404;SDS011;697;51.114;6.542;2023-03-01T07:10:27;15.57;;;10.47;;
1404;SDS011;697;51.114;6.542;2023-03-01T07:12:54;15.67;;;11.13;;
1404;SDS011;697;51.114;6.542;2023-03-01T07:15:23;11.73;;;9.73;;
1404;SDS011;697;51.114;6.542;2023-03-01T07:17:50;12.57;;;10.47;;
1404;SDS011;697;51.114;6.542;2023-03-01T07:20:17;17.73;;;10.90;;
1404;SDS011;697;51.114;6.542;2023-03-01T07:22:46;16.27;;;11.83;;
1404;SDS011;697;51.114;6.542;2023-03-01T07:25:13;13.03;;;11.60;;
1404;SDS011;697;51.114;6.542;2023-03-01T07:27:40;12.50;;;11.20;;
1404;SDS011;697;51.114;6.542;2023-03-01T07:30:07;13.90;;;11.13;;
1404;SDS011;697;51.114;6.542;2023-03-01T07:32:36;17.03;;;11.40;;
1404;SDS011;697;51.114;6.542;2023-03-01T07:35:03;15.40;;;11.23;;
1404;SDS011;697;51.114;6.542;2023-03-01T07:37:30;17.30;;;12.77;;
1404;SDS011;697;51.114;6.542;2023-03-01T07:39:57;12.93;;;11.27;;
1404;SDS011;697;51.114;6.542;2023-03-01T07:42:23;16.33;;;12.10;;
1404;SDS011;697;51.114;6.542;2023-03-01T07:44:50;14.70;;;12.47;;
1404;SDS011;697;51.114;6.542;2023-03-01T07:47:17;14.50;;;11.60;;
1404;SDS011;697;51.114;6.542;2023-03-01T07:49:45;16.43;;;12.10;;
1404;SDS011;697;51.114;6.542;2023-03-01T07:52:12;16.17;;;12.00;;
1404;SDS011;697;51.114;6.542;2023-03-01T07:54:38;19.03;;;12.70;;
1404;SDS011;697;51.114;6.542;2023-03-01T07:57:08;16.80;;;12.27;;
1404;SDS011;697;51.114;6.542;2023-03-01T07:59:34;17.80;;;13.47;;
1404;SDS011;697;51.114;6.542;2023-03-01T08:02:01;18.03;;;13.73;;
1404;SDS011;697;51.114;6.542;2023-03-01T08:04:28;16.40;;;13.40;;
1404;SDS011;697;51.114;6.542;2023-03-01T08:06:56;13.70;;;11.43;;
1404;SDS011;697;51.114;6.542;2023-03-01T08:09:23;15.70;;;13.47;;
1404;SDS011;697;51.114;6.542;2023-03-01T08:11:49;15.83;;;12.97;;
1404;SDS011;697;51.114;6.542;2023-03-01T08:14:16;16.20;;;12.90;;
1404;SDS011;697;51.114;6.542;2023-03-01T08:16:43;16.00;;;12.60;;
1404;SDS011;697;51.114;6.542;2023-03-01T08:19:10;17.00;;;13.40;;
1404;SDS011;697;51.114;6.542;2023-03-01T08:21:38;18.77;;;14.30;;
1404;SDS011;697;51.114;6.542;2023-03-01T08:24:07;17.13;;;13.77;;
1404;SDS011;697;51.114;6.542;2023-03-01T08:26:35;15.73;;;13.13;;
1404;SDS011;697;51.114;6.542;2023-03-01T08:29:03;15.37;;;12.87;;
1404;SDS011;697;51.114;6.542;2023-03-01T08:31:30;16.87;;;13.10;;
1404;SDS011;697;51.114;6.542;2023-03-01T08:34:00;20.00;;;15.07;;
1404;SDS011;697;51.114;6.542;2023-03-01T08:36:29;15.60;;;13.80;;
1404;SDS011;697;51.114;6.542;2023-03-01T08:38:58;18.10;;;14.13;;
1404;SDS011;697;51.114;6.542;2023-03-01T08:41:26;15.13;;;13.10;;
1404;SDS011;697;51.114;6.542;2023-03-01T08:43:54;21.97;;;13.67;;
1404;SDS011;697;51.114;6.542;2023-03-01T08:46:23;18.90;;;14.07;;
1404;SDS011;697;51.114;6.542;2023-03-01T08:48:51;17.53;;;14.80;;
1404;SDS011;697;51.114;6.542;2023-03-01T08:51:18;20.60;;;16.57;;
1404;SDS011;697;51.114;6.542;2023-03-01T08:53:45;20.40;;;16.80;;
1404;SDS011;697;51.114;6.542;2023-03-01T08:56:13;20.00;;;16.60;;
1404;SDS011;697;51.114;6.542;2023-03-01T08:58:44;18.63;;;14.20;;
1404;SDS011;697;51.114;6.542;2023-03-01T09:01:12;17.43;;;13.73;;
1404;SDS011;697;51.114;6.542;2023-03-01T09:03:40;17.20;;;14.50;;
1404;SDS011;697;51.114;6.542;2023-03-01T09:06:07;16.90;;;13.07;;
1404;SDS011;697;51.114;6.542;2023-03-01T09:08:34;17.87;;;14.70;;
1404;SDS011;697;51.114;6.542;2023-03-01T09:11:02;18.17;;;14.73;;
1404;SDS011;697;51.114;6.542;2023-03-01T09:13:29;23.10;;;14.83;;
1404;SDS011;697;51.114;6.542;2023-03-01T09:15:58;24.07;;;13.33;;
1404;SDS011;697;51.114;6.542;2023-03-01T09:18:26;19.83;;;15.57;;
1404;SDS011;697;51.114;6.542;2023-03-01T09:20:53;17.37;;;13.20;;
1404;SDS011;697;51.114;6.542;2023-03-01T09:23:26;19.70;;;14.60;;
1404;SDS011;697;51.114;6.542;2023-03-01T09:25:53;17.60;;;13.57;;
1404;SDS011;697;51.114;6.542;2023-03-01T09:28:20;18.00;;;14.63;;
1404;SDS011;697;51.114;6.542;2023-03-01T09:30:48;20.23;;;15.80;;
1404;SDS011;697;51.114;6.542;2023-03-01T09:33:16;23.53;;;15.67;;
1404;SDS011;697;51.114;6.542;2023-03-01T09:35:42;20.77;;;14.60;;
1404;SDS011;697;51.114;6.542;2023-03-01T09:38:11;20.73;;;15.83;;
1404;SDS011;697;51.114;6.542;2023-03-01T09:40:41;15.53;;;13.50;;
1404;SDS011;697;51.114;6.542;2023-03-01T09:43:13;17.53;;;13.93;;
1404;SDS011;697;51.114;6.542;2023-03-01T09:45:44;20.10;;;14.83;;
1404;SDS011;697;51.114;6.542;2023-03-01T09:48:15;15.23;;;13.60;;
1404;SDS011;697;51.114;6.542;2023-03-01T09:50:47;26.57;;;15.33;;
1404;SDS011;697;51.114;6.542;2023-03-01T09:53:15;17.03;;;13.40;;
1404;SDS011;697;51.114;6.542;2023-03-01T09:55:44;17.50;;;13.87;;
1404;SDS011;697;51.114;6.542;2023-03-01T09:58:25;15.90;;;12.77;;
1404;SDS011;697;51.114;6.542;2023-03-01T10:00:57;18.50;;;13.37;;
1404;SDS011;697;51.114;6.542;2023-03-01T10:03:31;13.87;;;12.30;;
1404;SDS011;697;51.114;6.542;2023-03-01T10:06:04;16.80;;;12.73;;
1404;SDS011;697;51.114;6.542;2023-03-01T10:08:38;15.80;;;12.10;;
1404;SDS011;697;51.114;6.542;2023-03-01T10:11:16;17.07;;;13.90;;
1404;SDS011;697;51.114;6.542;2023-03-01T10:13:46;14.40;;;11.37;;
1404;SDS011;697;51.114;6.542;2023-03-01T10:16:19;13.63;;;11.93;;
1404;SDS011;697;51.114;6.542;2023-03-01T10:18:53;14.30;;;10.83;;
1404;SDS011;697;51.114;6.542;2023-03-01T10:21:23;13.53;;;11.40;;
1404;SDS011;697;51.114;6.542;2023-03-01T10:23:50;16.10;;;10.53;;
1404;SDS011;697;51.114;6.542;2023-03-01T10:26:24;13.30;;;9.77;;
1404;SDS011;697;51.114;6.542;2023-03-01T10:29:00;13.10;;;10.80;;
1404;SDS011;697;51.114;6.542;2023-03-01T10:31:33;13.13;;;9.93;;
1404;SDS011;697;51.114;6.542;2023-03-01T10:34:09;13.70;;;10.90;;
1404;SDS011;697;51.114;6.542;2023-03-01T10:36:38;13.77;;;11.33;;
1404;SDS011;697;51.114;6.542;2023-03-01T10:39:11;11.77;;;10.60;;
1404;SDS011;697;51.114;6.542;2023-03-01T10:41:44;15.13;;;10.43;;
1404;SDS011;697;51.114;6.542;2023-03-01T10:47:12;12.47;;;10.90;;
1404;SDS011;697;51.114;6.542;2023-03-01T10:50:02;11.93;;;10.73;;
1404;SDS011;697;51.114;6.542;2023-03-01T10:52:31;12.03;;;10.70;;
1404;SDS011;697;51.114;6.542;2023-03-01T10:55:01;11.33;;;10.27;;
1404;SDS011;697;51.114;6.542;2023-03-01T10:57:31;12.00;;;10.50;;
1404;SDS011;697;51.114;6.542;2023-03-01T11:00:14;12.17;;;10.60;;
1404;SDS011;697;51.114;6.542;2023-03-01T11:02:50;11.73;;;10.53;;
1404;SDS011;697;51.114;6.542;2023-03-01T11:05:29;11.60;;;10.40;;
1404;SDS011;697;51.114;6.542;2023-03-01T11:07:59;13.13;;;11.83;;
1404;SDS011;697;51.114;6.542;2023-03-01T11:10:28;11.43;;;10.33;;
1404;SDS011;697;51.114;6.542;2023-03-01T11:13:05;10.67;;;9.57;;
1404;SDS011;697;51.114;6.542;2023-03-01T11:15:33;12.00;;;10.53;;
1404;SDS011;697;51.114;6.542;2023-03-01T11:18:01;11.40;;;10.30;;
1404;SDS011;697;51.114;6.542;2023-03-01T11:20:31;11.80;;;10.70;;
1404;SDS011;697;51.114;6.542;2023-03-01T11:23:01;11.10;;;9.87;;
1404;SDS011;697;51.114;6.542;2023-03-01T11:25:32;11.33;;;10.27;;
1404;SDS011;697;51.114;6.542;2023-03-01T11:28:03;10.63;;;9.63;;
1404;SDS011;697;51.114;6.542;2023-03-01T11:30:32;10.43;;;9.47;;
1404;SDS011;697;51.114;6.542;2023-03-01T11:33:08;12.40;;;11.10;;
1404;SDS011;697;51.114;6.542;2023-03-01T11:35:44;11.00;;;10.00;;
1404;SDS011;697;51.114;6.542;2023-03-01T11:38:16;11.70;;;10.50;;
1404;SDS011;697;51.114;6.542;2023-03-01T11:40:47;11.13;;;10.00;;
1404;SDS011;697;51.114;6.542;2023-03-01T11:43:20;10.67;;;9.70;;
1404;SDS011;697;51.114;6.542;2023-03-01T11:46:08;10.80;;;9.77;;
1404;SDS011;697;51.114;6.542;2023-03-01T11:48:57;13.07;;;10.67;;
1404;SDS011;697;51.114;6.542;2023-03-01T11:51:37;11.93;;;10.70;;
1404;SDS011;697;51.114;6.542;2023-03-01T11:54:20;9.87;;;9.00;;
1404;SDS011;697;51.114;6.542;2023-03-01T11:56:55;10.20;;;9.20;;
1404;SDS011;697;51.114;6.542;2023-03-01T11:59:31;11.27;;;10.27;;
1404;SDS011;697;51.114;6.542;2023-03-01T12:02:23;11.30;;;10.20;;
1404;SDS011;697;51.114;6.542;2023-03-01T12:05:15;10.60;;;9.70;;
1404;SDS011;697;51.114;6.542;2023-03-01T12:07:53;10.60;;;9.60;;
1404;SDS011;697;51.114;6.542;2023-03-01T12:10:25;12.17;;;11.07;;
1404;SDS011;697;51.114;6.542;2023-03-01T12:12:59;10.30;;;9.40;;
1404;SDS011;697;51.114;6.542;2023-03-01T12:15:59;11.10;;;10.20;;
1404;SDS011;697;51.114;6.542;2023-03-01T12:18:49;11.70;;;10.57;;
1404;SDS011;697;51.114;6.542;2023-03-01T12:21:30;12.20;;;11.10;;
1404;SDS011;697;51.114;6.542;2023-03-01T12:24:15;11.60;;;10.60;;
1404;SDS011;697;51.114;6.542;2023-03-01T12:27:00;13.10;;;10.43;;
1404;SDS011;697;51.114;6.542;2023-03-01T12:29:45;10.13;;;9.10;;
1404;SDS011;697;51.114;6.542;2023-03-01T12:32:21;11.47;;;10.47;;
1404;SDS011;697;51.114;6.542;2023-03-01T12:38:01;12.17;;;11.07;;
1404;SDS011;697;51.114;6.542;2023-03-01T12:40:49;11.17;;;10.17;;
1404;SDS011;697;51.114;6.542;2023-03-01T12:43:33;11.13;;;10.10;;
1404;SDS011;697;51.114;6.542;2023-03-01T12:46:11;11.40;;;10.30;;
1404;SDS011;697;51.114;6.542;2023-03-01T12:48:48;11.00;;;10.10;;
1404;SDS011;697;51.114;6.542;2023-03-01T12:51:26;11.00;;;10.00;;
1404;SDS011;697;51.114;6.542;2023-03-01T12:53:58;10.47;;;9.57;;
1404;SDS011;697;51.114;6.542;2023-03-01T12:56:30;12.10;;;10.90;;
1404;SDS011;697;51.114;6.542;2023-03-01T12:59:01;10.50;;;9.60;;
1404;SDS011;697;51.114;6.542;2023-03-01T13:01:35;9.77;;;8.97;;
1404;SDS011;697;51.114;6.542;2023-03-01T13:07:04;10.07;;;9.13;;
1404;SDS011;697;51.114;6.542;2023-03-01T13:09:47;10.00;;;9.00;;
1404;SDS011;697;51.114;6.542;2023-03-01T13:15:27;9.23;;;8.43;;
1404;SDS011;697;51.114;6.542;2023-03-01T13:17:55;9.37;;;8.47;;
1404;SDS011;697;51.114;6.542;2023-03-01T13:20:24;9.13;;;8.23;;
1404;SDS011;697;51.114;6.542;2023-03-01T13:23:00;9.03;;;8.30;;
1404;SDS011;697;51.114;6.542;2023-03-01T13:25:30;8.87;;;7.97;;
1404;SDS011;697;51.114;6.542;2023-03-01T13:30:57;9.23;;;8.30;;
1404;SDS011;697;51.114;6.542;2023-03-01T13:33:37;7.80;;;7.10;;
1404;SDS011;697;51.114;6.542;2023-03-01T13:36:07;8.00;;;7.30;;
1404;SDS011;697;51.114;6.542;2023-03-01T13:38:39;8.07;;;7.43;;
1404;SDS011;697;51.114;6.542;2023-03-01T13:41:11;8.03;;;7.23;;
1404;SDS011;697;51.114;6.542;2023-03-01T13:43:40;7.60;;;6.90;;
1404;SDS011;697;51.114;6.542;2023-03-01T13:46:11;7.70;;;7.00;;
1404;SDS011;697;51.114;6.542;2023-03-01T13:48:42;8.30;;;7.50;;
1404;SDS011;697;51.114;6.542;2023-03-01T13:51:13;7.93;;;7.23;;
1404;SDS011;697;51.114;6.542;2023-03-01T13:53:41;12.50;;;11.30;;
1404;SDS011;697;51.114;6.542;2023-03-01T13:56:11;8.27;;;7.67;;
1404;SDS011;697;51.114;6.542;2023-03-01T13:58:46;7.93;;;7.20;;
1404;SDS011;697;51.114;6.542;2023-03-01T14:01:28;8.17;;;7.57;;
1404;SDS011;697;51.114;6.542;2023-03-01T14:03:55;7.80;;;7.10;;
1404;SDS011;697;51.114;6.542;2023-03-01T14:06:23;8.03;;;7.33;;
1404;SDS011;697;51.114;6.542;2023-03-01T14:08:52;9.10;;;8.20;;
1404;SDS011;697;51.114;6.542;2023-03-01T14:11:37;9.03;;;8.13;;
1404;SDS011;697;51.114;6.542;2023-03-01T14:14:29;10.13;;;9.17;;
1404;SDS011;697;51.114;6.542;2023-03-01T14:17:21;8.60;;;7.80;;
1404;SDS011;697;51.114;6.542;2023-03-01T14:19:57;12.53;;;7.87;;
1404;SDS011;697;51.114;6.542;2023-03-01T14:22:26;11.30;;;9.87;;
1404;SDS011;697;51.114;6.542;2023-03-01T14:24:57;11.10;;;9.30;;
1404;SDS011;697;51.114;6.542;2023-03-01T14:27:26;8.70;;;7.90;;
1404;SDS011;697;51.114;6.542;2023-03-01T14:29:55;8.73;;;7.43;;
1404;SDS011;697;51.114;6.542;2023-03-01T14:32:25;8.57;;;7.53;;
1404;SDS011;697;51.114;6.542;2023-03-01T14:34:53;7.93;;;7.20;;
1404;SDS011;697;51.114;6.542;2023-03-01T14:37:21;7.43;;;6.77;;
1404;SDS011;697;51.114;6.542;2023-03-01T14:39:52;7.17;;;6.57;;
1404;SDS011;697;51.114;6.542;2023-03-01T14:42:19;10.30;;;7.50;;
1404;SDS011;697;51.114;6.542;2023-03-01T14:44:48;7.23;;;6.53;;
1404;SDS011;697;51.114;6.542;2023-03-01T14:47:19;7.90;;;7.30;;
1404;SDS011;697;51.114;6.542;2023-03-01T14:49:54;10.03;;;7.40;;
1404;SDS011;697;51.114;6.542;2023-03-01T14:52:25;8.50;;;7.60;;
1404;SDS011;697;51.114;6.542;2023-03-01T14:54:59;7.37;;;6.67;;
1404;SDS011;697;51.114;6.542;2023-03-01T14:57:28;7.80;;;7.13;;
1404;SDS011;697;51.114;6.542;2023-03-01T14:59:55;10.60;;;6.70;;
1404;SDS011;697;51.114;6.542;2023-03-01T15:02:26;10.13;;;7.20;;
1404;SDS011;697;51.114;6.542;2023-03-01T15:04:55;7.67;;;6.97;;
1404;SDS011;697;51.114;6.542;2023-03-01T15:07:26;8.33;;;7.43;;
1404;SDS011;697;51.114;6.542;2023-03-01T15:09:56;7.63;;;6.73;;
1404;SDS011;697;51.114;6.542;2023-03-01T15:15:19;8.73;;;7.83;;
1404;SDS011;697;51.114;6.542;2023-03-01T15:17:50;8.43;;;7.63;;
1404;SDS011;697;51.114;6.542;2023-03-01T15:20:20;9.07;;;8.20;;
1404;SDS011;697;51.114;6.542;2023-03-01T15:22:52;9.27;;;8.37;;
1404;SDS011;697;51.114;6.542;2023-03-01T15:25:21;8.83;;;7.80;;
1404;SDS011;697;51.114;6.542;2023-03-01T15:27:50;11.00;;;7.73;;
1404;SDS011;697;51.114;6.542;2023-03-01T15:30:18;9.97;;;8.97;;
1404;SDS011;697;51.114;6.542;2023-03-01T15:33:15;9.30;;;8.40;;
1404;SDS011;697;51.114;6.542;2023-03-01T15:35:46;11.10;;;9.50;;
1404;SDS011;697;51.114;6.542;2023-03-01T15:38:28;8.33;;;7.53;;
1404;SDS011;697;51.114;6.542;2023-03-01T15:40:58;8.37;;;7.37;;
1404;SDS011;697;51.114;6.542;2023-03-01T15:43:42;7.80;;;7.10;;
1404;SDS011;697;51.114;6.542;2023-03-01T15:46:17;9.80;;;7.87;;
1404;SDS011;697;51.114;6.542;2023-03-01T15:48:48;8.80;;;7.47;;
1404;SDS011;697;51.114;6.542;2023-03-01T15:51:19;9.13;;;7.43;;